sensor_id;sensor_type;location;lat;lon;timestamp;P1;durP1;ratioP1;P2;durP2;ratioP2
5694;SDS011;2872;48.874;9.358;2023-07-31T00:01:12;4.78;;;1.40;;
5694;SDS011;2872;48.874;9.358;2023-07-31T00:03:39;4.13;;;1.23;;
5694;SDS011;2872;48.874;9.358;2023-07-31T00:06:06;2.70;;;1.30;;
5694;SDS011;2872;48.874;9.358;2023-07-31T00:08:32;3.83;;;1.13;;
5694;SDS011;2872;48.874;9.358;2023-07-31T00:10:59;4.10;;;1.30;;
5694;SDS011;2872;48.874;9.358;2023-07-31T00:13:27;7.00;;;1.30;;
5694;SDS011;2872;48.874;9.358;2023-07-31T00:15:53;2.90;;;0.90;;
5694;SDS011;2872;48.874;9.358;2023-07-31T00:18:20;2.40;;;1.30;;
5694;SDS011;2872;48.874;9.358;2023-07-31T00:20:47;4.90;;;1.40;;
5694;SDS011;2872;48.874;9.358;2023-07-31T00:23:13;1.80;;;1.30;;
5694;SDS011;2872;48.874;9.358;2023-07-31T00:25:41;3.40;;;1.20;;
5694;SDS011;2872;48.874;9.358;2023-07-31T00:28:07;4.60;;;1.30;;
5694;SDS011;2872;48.874;9.358;2023-07-31T00:30:35;3.93;;;1.30;;
5694;SDS011;2872;48.874;9.358;2023-07-31T00:33:02;4.70;;;1.23;;
5694;SDS011;2872;48.874;9.358;2023-07-31T00:35:28;4.25;;;1.15;;
5694;SDS011;2872;48.874;9.358;2023-07-31T00:37:56;3.42;;;1.67;;
5694;SDS011;2872;48.874;9.358;2023-07-31T00:40:24;3.95;;;1.08;;
5694;SDS011;2872;48.874;9.358;2023-07-31T00:42:50;6.15;;;1.20;;
5694;SDS011;2872;48.874;9.358;2023-07-31T00:45:17;8.80;;;1.60;;
5694;SDS011;2872;48.874;9.358;2023-07-31T00:47:45;2.70;;;1.10;;
5694;SDS011;2872;48.874;9.358;2023-07-31T00:50:12;5.00;;;1.40;;
5694;SDS011;2872;48.874;9.358;2023-07-31T00:52:39;1.60;;;1.00;;
5694;SDS011;2872;48.874;9.358;2023-07-31T00:55:06;3.17;;;1.15;;
5694;SDS011;2872;48.874;9.358;2023-07-31T00:57:33;2.97;;;1.10;;
5694;SDS011;2872;48.874;9.358;2023-07-31T01:00:01;3.58;;;1.10;;
5694;SDS011;2872;48.874;9.358;2023-07-31T01:02:28;3.35;;;1.08;;
5694;SDS011;2872;48.874;9.358;2023-07-31T01:04:56;4.10;;;1.30;;
5694;SDS011;2872;48.874;9.358;2023-07-31T01:07:25;2.40;;;1.30;;
5694;SDS011;2872;48.874;9.358;2023-07-31T01:09:57;3.45;;;1.23;;
5694;SDS011;2872;48.874;9.358;2023-07-31T01:12:28;4.80;;;1.30;;
5694;SDS011;2872;48.874;9.358;2023-07-31T01:15:03;2.58;;;1.20;;
5694;SDS011;2872;48.874;9.358;2023-07-31T01:17:31;3.10;;;1.38;;
5694;SDS011;2872;48.874;9.358;2023-07-31T01:19:59;1.27;;;0.90;;
5694;SDS011;2872;48.874;9.358;2023-07-31T01:22:37;2.60;;;1.20;;
5694;SDS011;2872;48.874;9.358;2023-07-31T01:25:15;4.55;;;1.67;;
5694;SDS011;2872;48.874;9.358;2023-07-31T01:27:50;2.50;;;1.10;;
5694;SDS011;2872;48.874;9.358;2023-07-31T01:30:21;8.27;;;1.63;;
5694;SDS011;2872;48.874;9.358;2023-07-31T01:32:50;1.73;;;1.00;;
5694;SDS011;2872;48.874;9.358;2023-07-31T01:35:17;2.22;;;1.00;;
5694;SDS011;2872;48.874;9.358;2023-07-31T01:37:44;2.72;;;1.38;;
5694;SDS011;2872;48.874;9.358;2023-07-31T01:40:11;6.70;;;1.40;;
5694;SDS011;2872;48.874;9.358;2023-07-31T01:42:38;4.95;;;1.30;;
5694;SDS011;2872;48.874;9.358;2023-07-31T01:45:07;2.27;;;1.50;;
5694;SDS011;2872;48.874;9.358;2023-07-31T01:47:35;4.60;;;1.60;;
5694;SDS011;2872;48.874;9.358;2023-07-31T01:50:01;4.50;;;1.60;;
5694;SDS011;2872;48.874;9.358;2023-07-31T01:52:28;1.93;;;1.20;;
5694;SDS011;2872;48.874;9.358;2023-07-31T01:54:55;2.40;;;1.00;;
5694;SDS011;2872;48.874;9.358;2023-07-31T01:57:22;7.50;;;1.40;;
5694;SDS011;2872;48.874;9.358;2023-07-31T01:59:48;2.85;;;1.30;;
5694;SDS011;2872;48.874;9.358;2023-07-31T02:02:16;5.93;;;1.20;;
5694;SDS011;2872;48.874;9.358;2023-07-31T02:04:43;6.45;;;1.30;;
5694;SDS011;2872;48.874;9.358;2023-07-31T02:07:10;3.70;;;1.30;;
5694;SDS011;2872;48.874;9.358;2023-07-31T02:09:36;6.18;;;1.70;;
5694;SDS011;2872;48.874;9.358;2023-07-31T02:12:04;6.22;;;1.60;;
5694;SDS011;2872;48.874;9.358;2023-07-31T02:14:33;3.45;;;1.00;;
5694;SDS011;2872;48.874;9.358;2023-07-31T02:17:00;3.78;;;0.95;;
5694;SDS011;2872;48.874;9.358;2023-07-31T02:19:28;5.68;;;1.55;;
5694;SDS011;2872;48.874;9.358;2023-07-31T02:21:55;3.67;;;1.48;;
5694;SDS011;2872;48.874;9.358;2023-07-31T02:24:21;5.50;;;1.30;;
5694;SDS011;2872;48.874;9.358;2023-07-31T02:26:48;4.13;;;1.20;;
5694;SDS011;2872;48.874;9.358;2023-07-31T02:29:14;2.88;;;1.20;;
5694;SDS011;2872;48.874;9.358;2023-07-31T02:31:41;4.03;;;1.30;;
5694;SDS011;2872;48.874;9.358;2023-07-31T02:34:08;1.80;;;1.08;;
5694;SDS011;2872;48.874;9.358;2023-07-31T02:36:36;2.70;;;1.50;;
5694;SDS011;2872;48.874;9.358;2023-07-31T02:39:02;4.43;;;1.58;;
5694;SDS011;2872;48.874;9.358;2023-07-31T02:41:29;2.13;;;1.42;;
5694;SDS011;2872;48.874;9.358;2023-07-31T02:43:56;1.40;;;1.13;;
5694;SDS011;2872;48.874;9.358;2023-07-31T02:46:22;5.10;;;1.30;;
5694;SDS011;2872;48.874;9.358;2023-07-31T02:48:50;5.50;;;1.20;;
5694;SDS011;2872;48.874;9.358;2023-07-31T02:51:16;3.70;;;1.40;;
5694;SDS011;2872;48.874;9.358;2023-07-31T02:53:44;2.45;;;1.20;;
5694;SDS011;2872;48.874;9.358;2023-07-31T02:56:11;2.97;;;1.20;;
5694;SDS011;2872;48.874;9.358;2023-07-31T02:58:38;4.85;;;1.20;;
5694;SDS011;2872;48.874;9.358;2023-07-31T03:01:04;3.13;;;1.23;;
5694;SDS011;2872;48.874;9.358;2023-07-31T03:03:31;6.95;;;1.50;;
5694;SDS011;2872;48.874;9.358;2023-07-31T03:05:58;4.20;;;1.30;;
5694;SDS011;2872;48.874;9.358;2023-07-31T03:08:25;3.40;;;1.35;;
5694;SDS011;2872;48.874;9.358;2023-07-31T03:10:53;2.15;;;1.00;;
5694;SDS011;2872;48.874;9.358;2023-07-31T03:13:19;2.30;;;1.17;;
5694;SDS011;2872;48.874;9.358;2023-07-31T03:15:46;1.83;;;1.40;;
5694;SDS011;2872;48.874;9.358;2023-07-31T03:18:13;4.18;;;1.48;;
5694;SDS011;2872;48.874;9.358;2023-07-31T03:20:41;5.57;;;1.80;;
5694;SDS011;2872;48.874;9.358;2023-07-31T03:23:08;5.60;;;1.40;;
5694;SDS011;2872;48.874;9.358;2023-07-31T03:25:35;2.28;;;1.13;;
5694;SDS011;2872;48.874;9.358;2023-07-31T03:28:03;7.70;;;1.40;;
5694;SDS011;2872;48.874;9.358;2023-07-31T03:30:30;3.72;;;1.33;;
5694;SDS011;2872;48.874;9.358;2023-07-31T03:32:57;3.15;;;1.30;;
5694;SDS011;2872;48.874;9.358;2023-07-31T03:35:23;4.97;;;1.38;;
5694;SDS011;2872;48.874;9.358;2023-07-31T03:37:50;2.50;;;1.25;;
5694;SDS011;2872;48.874;9.358;2023-07-31T03:40:16;7.35;;;1.40;;
5694;SDS011;2872;48.874;9.358;2023-07-31T03:42:43;2.95;;;1.40;;
5694;SDS011;2872;48.874;9.358;2023-07-31T03:45:11;4.43;;;1.30;;
5694;SDS011;2872;48.874;9.358;2023-07-31T03:47:38;2.40;;;1.00;;
5694;SDS011;2872;48.874;9.358;2023-07-31T03:50:05;2.50;;;1.10;;
5694;SDS011;2872;48.874;9.358;2023-07-31T03:52:32;5.55;;;1.20;;
5694;SDS011;2872;48.874;9.358;2023-07-31T03:55:01;3.70;;;1.40;;
5694;SDS011;2872;48.874;9.358;2023-07-31T03:57:28;7.50;;;1.20;;
5694;SDS011;2872;48.874;9.358;2023-07-31T03:59:54;2.30;;;1.20;;
5694;SDS011;2872;48.874;9.358;2023-07-31T04:02:22;3.50;;;1.00;;
5694;SDS011;2872;48.874;9.358;2023-07-31T04:04:49;2.83;;;1.40;;
5694;SDS011;2872;48.874;9.358;2023-07-31T04:07:16;5.25;;;1.40;;
5694;SDS011;2872;48.874;9.358;2023-07-31T04:09:42;3.85;;;1.20;;
5694;SDS011;2872;48.874;9.358;2023-07-31T04:12:09;3.20;;;1.40;;
5694;SDS011;2872;48.874;9.358;2023-07-31T04:14:36;2.40;;;1.10;;
5694;SDS011;2872;48.874;9.358;2023-07-31T04:17:03;4.75;;;1.42;;
5694;SDS011;2872;48.874;9.358;2023-07-31T04:19:31;5.55;;;1.75;;
5694;SDS011;2872;48.874;9.358;2023-07-31T04:21:58;6.20;;;1.50;;
5694;SDS011;2872;48.874;9.358;2023-07-31T04:24:24;3.70;;;1.30;;
5694;SDS011;2872;48.874;9.358;2023-07-31T04:26:51;4.15;;;1.20;;
5694;SDS011;2872;48.874;9.358;2023-07-31T04:29:21;3.05;;;1.00;;
5694;SDS011;2872;48.874;9.358;2023-07-31T04:31:49;1.70;;;0.90;;
5694;SDS011;2872;48.874;9.358;2023-07-31T04:34:21;4.00;;;1.67;;
5694;SDS011;2872;48.874;9.358;2023-07-31T04:36:49;3.90;;;1.27;;
5694;SDS011;2872;48.874;9.358;2023-07-31T04:39:19;3.70;;;1.23;;
5694;SDS011;2872;48.874;9.358;2023-07-31T04:41:47;5.22;;;1.50;;
5694;SDS011;2872;48.874;9.358;2023-07-31T04:44:15;4.90;;;1.50;;
5694;SDS011;2872;48.874;9.358;2023-07-31T04:46:42;4.18;;;1.40;;
5694;SDS011;2872;48.874;9.358;2023-07-31T04:49:08;3.92;;;1.17;;
5694;SDS011;2872;48.874;9.358;2023-07-31T04:51:35;3.92;;;1.15;;
5694;SDS011;2872;48.874;9.358;2023-07-31T04:54:08;3.10;;;1.00;;
5694;SDS011;2872;48.874;9.358;2023-07-31T04:56:39;8.02;;;1.48;;
5694;SDS011;2872;48.874;9.358;2023-07-31T04:59:06;3.85;;;1.42;;
5694;SDS011;2872;48.874;9.358;2023-07-31T05:01:32;3.10;;;1.20;;
5694;SDS011;2872;48.874;9.358;2023-07-31T05:03:59;4.95;;;1.33;;
5694;SDS011;2872;48.874;9.358;2023-07-31T05:06:26;2.60;;;1.48;;
5694;SDS011;2872;48.874;9.358;2023-07-31T05:08:52;1.67;;;1.20;;
5694;SDS011;2872;48.874;9.358;2023-07-31T05:11:20;4.65;;;1.70;;
5694;SDS011;2872;48.874;9.358;2023-07-31T05:13:47;4.30;;;1.42;;
5694;SDS011;2872;48.874;9.358;2023-07-31T05:16:13;5.35;;;1.65;;
5694;SDS011;2872;48.874;9.358;2023-07-31T05:18:43;3.80;;;1.77;;
5694;SDS011;2872;48.874;9.358;2023-07-31T05:21:10;3.30;;;1.40;;
5694;SDS011;2872;48.874;9.358;2023-07-31T05:23:36;1.60;;;1.20;;
5694;SDS011;2872;48.874;9.358;2023-07-31T05:26:03;6.63;;;1.27;;
5694;SDS011;2872;48.874;9.358;2023-07-31T05:28:37;4.55;;;1.20;;
5694;SDS011;2872;48.874;9.358;2023-07-31T05:31:07;5.63;;;1.65;;
5694;SDS011;2872;48.874;9.358;2023-07-31T05:33:34;4.55;;;2.00;;
5694;SDS011;2872;48.874;9.358;2023-07-31T05:36:00;3.53;;;1.60;;
5694;SDS011;2872;48.874;9.358;2023-07-31T05:38:37;6.35;;;1.38;;
5694;SDS011;2872;48.874;9.358;2023-07-31T05:41:07;6.60;;;2.10;;
5694;SDS011;2872;48.874;9.358;2023-07-31T05:43:33;5.20;;;1.48;;
5694;SDS011;2872;48.874;9.358;2023-07-31T05:46:01;2.80;;;1.35;;
5694;SDS011;2872;48.874;9.358;2023-07-31T05:48:34;6.20;;;1.60;;
5694;SDS011;2872;48.874;9.358;2023-07-31T05:51:00;3.17;;;1.50;;
5694;SDS011;2872;48.874;9.358;2023-07-31T05:53:35;4.18;;;1.60;;
5694;SDS011;2872;48.874;9.358;2023-07-31T05:56:05;6.70;;;1.60;;
5694;SDS011;2872;48.874;9.358;2023-07-31T05:58:32;3.40;;;1.55;;
5694;SDS011;2872;48.874;9.358;2023-07-31T06:00:59;2.75;;;1.40;;
5694;SDS011;2872;48.874;9.358;2023-07-31T06:03:26;4.63;;;1.30;;
5694;SDS011;2872;48.874;9.358;2023-07-31T06:05:56;5.22;;;1.70;;
5694;SDS011;2872;48.874;9.358;2023-07-31T06:08:22;4.47;;;1.40;;
5694;SDS011;2872;48.874;9.358;2023-07-31T06:10:49;2.38;;;1.67;;
5694;SDS011;2872;48.874;9.358;2023-07-31T06:13:16;4.27;;;1.73;;
5694;SDS011;2872;48.874;9.358;2023-07-31T06:15:42;5.43;;;1.80;;
5694;SDS011;2872;48.874;9.358;2023-07-31T06:18:09;4.97;;;1.80;;
5694;SDS011;2872;48.874;9.358;2023-07-31T06:20:46;2.25;;;1.13;;
5694;SDS011;2872;48.874;9.358;2023-07-31T06:23:18;2.10;;;1.40;;
5694;SDS011;2872;48.874;9.358;2023-07-31T06:25:45;4.80;;;1.48;;
5694;SDS011;2872;48.874;9.358;2023-07-31T06:28:17;4.73;;;1.37;;
5694;SDS011;2872;48.874;9.358;2023-07-31T06:30:47;2.50;;;1.50;;
5694;SDS011;2872;48.874;9.358;2023-07-31T06:33:14;4.22;;;1.40;;
5694;SDS011;2872;48.874;9.358;2023-07-31T06:35:43;4.63;;;1.33;;
5694;SDS011;2872;48.874;9.358;2023-07-31T06:38:12;3.75;;;1.50;;
5694;SDS011;2872;48.874;9.358;2023-07-31T06:40:38;1.65;;;1.10;;
5694;SDS011;2872;48.874;9.358;2023-07-31T06:43:05;4.00;;;1.60;;
5694;SDS011;2872;48.874;9.358;2023-07-31T06:45:33;6.10;;;1.20;;
5694;SDS011;2872;48.874;9.358;2023-07-31T06:48:06;3.72;;;1.70;;
5694;SDS011;2872;48.874;9.358;2023-07-31T06:50:32;7.80;;;1.90;;
5694;SDS011;2872;48.874;9.358;2023-07-31T06:52:59;13.13;;;1.90;;
5694;SDS011;2872;48.874;9.358;2023-07-31T06:55:27;3.28;;;1.50;;
5694;SDS011;2872;48.874;9.358;2023-07-31T06:57:55;3.63;;;1.30;;
5694;SDS011;2872;48.874;9.358;2023-07-31T07:00:22;4.97;;;1.90;;
5694;SDS011;2872;48.874;9.358;2023-07-31T07:02:49;4.50;;;2.15;;
5694;SDS011;2872;48.874;9.358;2023-07-31T07:05:18;6.78;;;2.15;;
5694;SDS011;2872;48.874;9.358;2023-07-31T07:07:45;6.88;;;1.70;;
5694;SDS011;2872;48.874;9.358;2023-07-31T07:10:12;7.22;;;2.05;;
5694;SDS011;2872;48.874;9.358;2023-07-31T07:12:41;6.00;;;2.00;;
5694;SDS011;2872;48.874;9.358;2023-07-31T07:15:08;6.35;;;1.73;;
5694;SDS011;2872;48.874;9.358;2023-07-31T07:17:35;5.15;;;2.03;;
5694;SDS011;2872;48.874;9.358;2023-07-31T07:20:05;4.32;;;1.70;;
5694;SDS011;2872;48.874;9.358;2023-07-31T07:22:33;5.97;;;1.90;;
5694;SDS011;2872;48.874;9.358;2023-07-31T07:25:00;3.73;;;1.77;;
5694;SDS011;2872;48.874;9.358;2023-07-31T07:27:28;5.72;;;1.70;;
5694;SDS011;2872;48.874;9.358;2023-07-31T07:29:56;6.57;;;2.22;;
5694;SDS011;2872;48.874;9.358;2023-07-31T07:32:23;7.83;;;1.90;;
5694;SDS011;2872;48.874;9.358;2023-07-31T07:34:52;8.05;;;2.42;;
5694;SDS011;2872;48.874;9.358;2023-07-31T07:37:20;10.55;;;2.30;;
5694;SDS011;2872;48.874;9.358;2023-07-31T07:39:48;6.22;;;2.30;;
5694;SDS011;2872;48.874;9.358;2023-07-31T07:42:15;7.97;;;2.10;;
5694;SDS011;2872;48.874;9.358;2023-07-31T07:44:42;2.83;;;1.48;;
5694;SDS011;2872;48.874;9.358;2023-07-31T07:47:10;4.88;;;1.30;;
5694;SDS011;2872;48.874;9.358;2023-07-31T07:49:36;4.15;;;2.30;;
5694;SDS011;2872;48.874;9.358;2023-07-31T07:52:06;5.57;;;1.50;;
5694;SDS011;2872;48.874;9.358;2023-07-31T07:54:33;5.93;;;2.03;;
5694;SDS011;2872;48.874;9.358;2023-07-31T07:57:01;5.38;;;2.00;;
5694;SDS011;2872;48.874;9.358;2023-07-31T07:59:29;5.85;;;2.00;;
5694;SDS011;2872;48.874;9.358;2023-07-31T08:01:56;6.30;;;2.00;;
5694;SDS011;2872;48.874;9.358;2023-07-31T08:04:24;5.03;;;1.75;;
5694;SDS011;2872;48.874;9.358;2023-07-31T08:06:53;2.30;;;1.75;;
5694;SDS011;2872;48.874;9.358;2023-07-31T08:09:20;6.65;;;1.90;;
5694;SDS011;2872;48.874;9.358;2023-07-31T08:11:49;4.53;;;2.30;;
5694;SDS011;2872;48.874;9.358;2023-07-31T08:14:17;6.35;;;2.08;;
5694;SDS011;2872;48.874;9.358;2023-07-31T08:16:44;6.90;;;3.07;;
5694;SDS011;2872;48.874;9.358;2023-07-31T08:19:10;4.15;;;2.47;;
5694;SDS011;2872;48.874;9.358;2023-07-31T08:21:38;5.45;;;2.22;;
5694;SDS011;2872;48.874;9.358;2023-07-31T08:24:05;8.52;;;2.10;;
5694;SDS011;2872;48.874;9.358;2023-07-31T08:26:32;6.80;;;2.30;;
5694;SDS011;2872;48.874;9.358;2023-07-31T08:28:59;5.25;;;2.00;;
5694;SDS011;2872;48.874;9.358;2023-07-31T08:31:26;4.95;;;1.90;;
5694;SDS011;2872;48.874;9.358;2023-07-31T08:33:54;6.13;;;2.43;;
5694;SDS011;2872;48.874;9.358;2023-07-31T08:36:21;5.82;;;2.78;;
5694;SDS011;2872;48.874;9.358;2023-07-31T08:38:49;9.73;;;1.90;;
5694;SDS011;2872;48.874;9.358;2023-07-31T08:41:16;6.85;;;1.80;;
5694;SDS011;2872;48.874;9.358;2023-07-31T08:43:45;5.35;;;2.10;;
5694;SDS011;2872;48.874;9.358;2023-07-31T08:46:12;5.70;;;1.97;;
5694;SDS011;2872;48.874;9.358;2023-07-31T08:48:41;7.07;;;1.90;;
5694;SDS011;2872;48.874;9.358;2023-07-31T08:51:14;5.70;;;1.92;;
5694;SDS011;2872;48.874;9.358;2023-07-31T08:53:41;3.67;;;2.00;;
5694;SDS011;2872;48.874;9.358;2023-07-31T08:56:08;8.87;;;2.00;;
5694;SDS011;2872;48.874;9.358;2023-07-31T08:58:40;8.85;;;2.28;;
5694;SDS011;2872;48.874;9.358;2023-07-31T09:01:06;4.03;;;1.73;;
5694;SDS011;2872;48.874;9.358;2023-07-31T09:03:34;5.95;;;2.30;;
5694;SDS011;2872;48.874;9.358;2023-07-31T09:06:02;4.40;;;1.60;;
5694;SDS011;2872;48.874;9.358;2023-07-31T09:08:30;7.15;;;2.78;;
5694;SDS011;2872;48.874;9.358;2023-07-31T09:10:58;9.15;;;1.98;;
5694;SDS011;2872;48.874;9.358;2023-07-31T09:13:27;7.28;;;2.20;;
5694;SDS011;2872;48.874;9.358;2023-07-31T09:15:55;6.93;;;2.20;;
5694;SDS011;2872;48.874;9.358;2023-07-31T09:18:22;7.07;;;2.20;;
5694;SDS011;2872;48.874;9.358;2023-07-31T09:21:03;6.63;;;1.95;;
5694;SDS011;2872;48.874;9.358;2023-07-31T09:23:42;6.10;;;1.93;;
5694;SDS011;2872;48.874;9.358;2023-07-31T09:26:09;4.53;;;2.15;;
5694;SDS011;2872;48.874;9.358;2023-07-31T09:28:37;5.20;;;1.98;;
5694;SDS011;2872;48.874;9.358;2023-07-31T09:31:04;6.10;;;2.03;;
5694;SDS011;2872;48.874;9.358;2023-07-31T09:33:31;5.53;;;3.08;;
5694;SDS011;2872;48.874;9.358;2023-07-31T09:35:58;7.60;;;2.17;;
5694;SDS011;2872;48.874;9.358;2023-07-31T09:38:26;5.77;;;1.87;;
5694;SDS011;2872;48.874;9.358;2023-07-31T09:40:52;2.88;;;1.60;;
5694;SDS011;2872;48.874;9.358;2023-07-31T09:43:19;3.13;;;1.90;;
5694;SDS011;2872;48.874;9.358;2023-07-31T09:45:48;5.80;;;2.00;;
5694;SDS011;2872;48.874;9.358;2023-07-31T09:48:23;4.60;;;2.03;;
5694;SDS011;2872;48.874;9.358;2023-07-31T09:50:54;6.75;;;1.95;;
5694;SDS011;2872;48.874;9.358;2023-07-31T09:53:22;3.17;;;1.60;;
5694;SDS011;2872;48.874;9.358;2023-07-31T09:55:57;6.22;;;2.30;;
5694;SDS011;2872;48.874;9.358;2023-07-31T09:58:24;4.30;;;1.50;;
5694;SDS011;2872;48.874;9.358;2023-07-31T10:00:55;5.90;;;2.00;;
5694;SDS011;2872;48.874;9.358;2023-07-31T10:03:25;8.52;;;2.20;;
5694;SDS011;2872;48.874;9.358;2023-07-31T10:05:52;7.68;;;2.10;;
5694;SDS011;2872;48.874;9.358;2023-07-31T10:08:20;5.28;;;2.00;;
5694;SDS011;2872;48.874;9.358;2023-07-31T10:10:50;7.30;;;2.45;;
5694;SDS011;2872;48.874;9.358;2023-07-31T10:13:17;5.00;;;2.20;;
5694;SDS011;2872;48.874;9.358;2023-07-31T10:15:47;5.73;;;2.30;;
5694;SDS011;2872;48.874;9.358;2023-07-31T10:18:18;5.70;;;2.17;;
5694;SDS011;2872;48.874;9.358;2023-07-31T10:20:46;5.78;;;2.20;;
5694;SDS011;2872;48.874;9.358;2023-07-31T10:23:25;6.50;;;2.20;;
5694;SDS011;2872;48.874;9.358;2023-07-31T10:25:51;8.45;;;3.28;;
5694;SDS011;2872;48.874;9.358;2023-07-31T10:28:19;6.47;;;2.40;;
5694;SDS011;2872;48.874;9.358;2023-07-31T10:30:47;7.63;;;2.03;;
5694;SDS011;2872;48.874;9.358;2023-07-31T10:33:14;10.85;;;1.88;;
5694;SDS011;2872;48.874;9.358;2023-07-31T10:35:43;4.87;;;2.10;;
5694;SDS011;2872;48.874;9.358;2023-07-31T10:38:09;5.25;;;1.80;;
5694;SDS011;2872;48.874;9.358;2023-07-31T10:40:37;2.90;;;1.80;;
5694;SDS011;2872;48.874;9.358;2023-07-31T10:43:07;5.45;;;1.90;;
5694;SDS011;2872;48.874;9.358;2023-07-31T10:45:36;4.70;;;2.00;;
5694;SDS011;2872;48.874;9.358;2023-07-31T10:48:05;6.85;;;2.67;;
5694;SDS011;2872;48.874;9.358;2023-07-31T10:50:32;6.50;;;2.30;;
5694;SDS011;2872;48.874;9.358;2023-07-31T10:53:05;5.15;;;2.38;;
5694;SDS011;2872;48.874;9.358;2023-07-31T10:55:32;8.93;;;2.28;;
5694;SDS011;2872;48.874;9.358;2023-07-31T10:58:06;2.97;;;1.80;;
5694;SDS011;2872;48.874;9.358;2023-07-31T11:00:33;3.95;;;2.13;;
5694;SDS011;2872;48.874;9.358;2023-07-31T11:03:07;8.90;;;2.88;;
5694;SDS011;2872;48.874;9.358;2023-07-31T11:05:45;3.28;;;2.00;;
5694;SDS011;2872;48.874;9.358;2023-07-31T11:08:18;3.08;;;1.80;;
5694;SDS011;2872;48.874;9.358;2023-07-31T11:10:46;3.80;;;1.90;;
5694;SDS011;2872;48.874;9.358;2023-07-31T11:13:14;5.82;;;2.50;;
5694;SDS011;2872;48.874;9.358;2023-07-31T11:15:41;3.90;;;2.00;;
5694;SDS011;2872;48.874;9.358;2023-07-31T11:18:07;7.80;;;2.25;;
5694;SDS011;2872;48.874;9.358;2023-07-31T11:20:36;11.20;;;2.30;;
5694;SDS011;2872;48.874;9.358;2023-07-31T11:23:05;3.55;;;2.15;;
5694;SDS011;2872;48.874;9.358;2023-07-31T11:25:34;5.83;;;2.27;;
5694;SDS011;2872;48.874;9.358;2023-07-31T11:28:08;6.88;;;1.83;;
5694;SDS011;2872;48.874;9.358;2023-07-31T11:30:38;6.57;;;2.22;;
5694;SDS011;2872;48.874;9.358;2023-07-31T11:33:06;4.55;;;2.10;;
5694;SDS011;2872;48.874;9.358;2023-07-31T11:35:34;5.63;;;2.05;;
5694;SDS011;2872;48.874;9.358;2023-07-31T11:38:04;10.00;;;2.58;;
5694;SDS011;2872;48.874;9.358;2023-07-31T11:40:30;6.95;;;3.30;;
5694;SDS011;2872;48.874;9.358;2023-07-31T11:42:58;2.78;;;2.10;;
5694;SDS011;2872;48.874;9.358;2023-07-31T11:45:30;4.13;;;2.33;;
5694;SDS011;2872;48.874;9.358;2023-07-31T11:47:57;7.80;;;2.15;;
5694;SDS011;2872;48.874;9.358;2023-07-31T11:50:27;4.63;;;2.15;;
5694;SDS011;2872;48.874;9.358;2023-07-31T11:52:55;5.93;;;2.10;;
5694;SDS011;2872;48.874;9.358;2023-07-31T11:55:27;7.03;;;2.65;;
5694;SDS011;2872;48.874;9.358;2023-07-31T11:57:54;5.60;;;2.30;;
5694;SDS011;2872;48.874;9.358;2023-07-31T12:00:23;6.32;;;2.22;;
5694;SDS011;2872;48.874;9.358;2023-07-31T12:02:53;5.10;;;2.30;;
5694;SDS011;2872;48.874;9.358;2023-07-31T12:05:20;8.10;;;2.30;;
5694;SDS011;2872;48.874;9.358;2023-07-31T12:07:51;2.22;;;1.77;;
5694;SDS011;2872;48.874;9.358;2023-07-31T12:10:22;4.38;;;2.00;;
5694;SDS011;2872;48.874;9.358;2023-07-31T12:12:58;6.53;;;2.30;;
5694;SDS011;2872;48.874;9.358;2023-07-31T12:15:33;7.13;;;2.63;;
5694;SDS011;2872;48.874;9.358;2023-07-31T12:18:00;6.75;;;2.08;;
5694;SDS011;2872;48.874;9.358;2023-07-31T12:20:39;5.50;;;2.10;;
5694;SDS011;2872;48.874;9.358;2023-07-31T12:23:13;6.15;;;2.33;;
5694;SDS011;2872;48.874;9.358;2023-07-31T12:25:41;3.63;;;2.17;;
5694;SDS011;2872;48.874;9.358;2023-07-31T12:28:11;5.43;;;2.60;;
5694;SDS011;2872;48.874;9.358;2023-07-31T12:30:39;7.20;;;2.00;;
5694;SDS011;2872;48.874;9.358;2023-07-31T12:33:07;7.43;;;1.90;;
5694;SDS011;2872;48.874;9.358;2023-07-31T12:35:41;7.35;;;2.40;;
5694;SDS011;2872;48.874;9.358;2023-07-31T12:38:11;5.38;;;2.47;;
5694;SDS011;2872;48.874;9.358;2023-07-31T12:40:38;6.00;;;2.40;;
5694;SDS011;2872;48.874;9.358;2023-07-31T12:43:06;4.80;;;2.30;;
5694;SDS011;2872;48.874;9.358;2023-07-31T12:45:35;4.00;;;2.10;;
5694;SDS011;2872;48.874;9.358;2023-07-31T12:48:03;5.32;;;2.30;;
5694;SDS011;2872;48.874;9.358;2023-07-31T12:50:30;4.75;;;1.90;;
5694;SDS011;2872;48.874;9.358;2023-07-31T12:52:57;5.28;;;1.90;;
5694;SDS011;2872;48.874;9.358;2023-07-31T12:55:25;4.20;;;2.10;;
5694;SDS011;2872;48.874;9.358;2023-07-31T12:57:52;5.95;;;2.20;;
5694;SDS011;2872;48.874;9.358;2023-07-31T13:00:19;4.88;;;2.80;;
5694;SDS011;2872;48.874;9.358;2023-07-31T13:02:47;6.15;;;2.55;;
5694;SDS011;2872;48.874;9.358;2023-07-31T13:05:15;6.80;;;2.42;;
5694;SDS011;2872;48.874;9.358;2023-07-31T13:07:43;5.35;;;2.33;;
5694;SDS011;2872;48.874;9.358;2023-07-31T13:10:15;3.72;;;1.77;;
5694;SDS011;2872;48.874;9.358;2023-07-31T13:12:42;5.90;;;2.30;;
5694;SDS011;2872;48.874;9.358;2023-07-31T13:15:12;4.95;;;2.25;;
5694;SDS011;2872;48.874;9.358;2023-07-31T13:17:39;6.68;;;2.00;;
5694;SDS011;2872;48.874;9.358;2023-07-31T13:20:06;4.85;;;2.28;;
5694;SDS011;2872;48.874;9.358;2023-07-31T13:22:43;3.95;;;1.77;;
5694;SDS011;2872;48.874;9.358;2023-07-31T13:25:10;3.77;;;2.00;;
5694;SDS011;2872;48.874;9.358;2023-07-31T13:27:36;5.28;;;2.58;;
5694;SDS011;2872;48.874;9.358;2023-07-31T13:30:03;5.40;;;2.47;;
5694;SDS011;2872;48.874;9.358;2023-07-31T13:32:37;3.70;;;2.30;;
5694;SDS011;2872;48.874;9.358;2023-07-31T13:35:04;9.25;;;2.20;;
5694;SDS011;2872;48.874;9.358;2023-07-31T13:37:34;4.43;;;2.10;;
5694;SDS011;2872;48.874;9.358;2023-07-31T13:40:02;4.53;;;2.30;;
5694;SDS011;2872;48.874;9.358;2023-07-31T13:42:33;4.70;;;2.13;;
5694;SDS011;2872;48.874;9.358;2023-07-31T13:45:00;3.93;;;2.20;;
5694;SDS011;2872;48.874;9.358;2023-07-31T13:47:26;4.70;;;2.30;;
5694;SDS011;2872;48.874;9.358;2023-07-31T13:49:59;3.33;;;1.67;;
5694;SDS011;2872;48.874;9.358;2023-07-31T13:52:25;4.78;;;2.33;;
5694;SDS011;2872;48.874;9.358;2023-07-31T13:54:52;4.20;;;2.28;;
5694;SDS011;2872;48.874;9.358;2023-07-31T13:57:22;8.20;;;2.45;;
5694;SDS011;2872;48.874;9.358;2023-07-31T13:59:49;5.72;;;2.30;;
5694;SDS011;2872;48.874;9.358;2023-07-31T14:02:16;5.03;;;2.10;;
5694;SDS011;2872;48.874;9.358;2023-07-31T14:04:42;5.57;;;2.40;;
5694;SDS011;2872;48.874;9.358;2023-07-31T14:07:10;7.78;;;2.08;;
5694;SDS011;2872;48.874;9.358;2023-07-31T14:09:37;5.45;;;2.10;;
5694;SDS011;2872;48.874;9.358;2023-07-31T14:12:04;7.95;;;2.58;;
5694;SDS011;2872;48.874;9.358;2023-07-31T14:14:32;4.50;;;2.40;;
5694;SDS011;2872;48.874;9.358;2023-07-31T14:17:05;8.70;;;2.70;;
5694;SDS011;2872;48.874;9.358;2023-07-31T14:19:32;4.93;;;2.47;;
5694;SDS011;2872;48.874;9.358;2023-07-31T14:22:01;3.30;;;2.15;;
5694;SDS011;2872;48.874;9.358;2023-07-31T14:24:28;6.50;;;2.10;;
5694;SDS011;2872;48.874;9.358;2023-07-31T14:26:55;5.60;;;1.90;;
5694;SDS011;2872;48.874;9.358;2023-07-31T14:29:24;4.20;;;1.80;;
5694;SDS011;2872;48.874;9.358;2023-07-31T14:31:53;4.90;;;2.50;;
5694;SDS011;2872;48.874;9.358;2023-07-31T14:34:19;7.70;;;2.30;;
5694;SDS011;2872;48.874;9.358;2023-07-31T14:36:48;4.97;;;2.10;;
5694;SDS011;2872;48.874;9.358;2023-07-31T14:39:15;3.88;;;2.40;;
5694;SDS011;2872;48.874;9.358;2023-07-31T14:41:41;3.90;;;1.88;;
5694;SDS011;2872;48.874;9.358;2023-07-31T14:44:08;7.38;;;2.38;;
5694;SDS011;2872;48.874;9.358;2023-07-31T14:46:38;4.93;;;2.15;;
5694;SDS011;2872;48.874;9.358;2023-07-31T14:49:06;6.60;;;3.00;;
5694;SDS011;2872;48.874;9.358;2023-07-31T14:51:36;6.30;;;2.47;;
5694;SDS011;2872;48.874;9.358;2023-07-31T14:54:03;6.55;;;2.65;;
5694;SDS011;2872;48.874;9.358;2023-07-31T14:56:30;4.72;;;2.08;;
5694;SDS011;2872;48.874;9.358;2023-07-31T14:59:00;6.40;;;2.40;;
5694;SDS011;2872;48.874;9.358;2023-07-31T15:01:27;2.72;;;1.88;;
5694;SDS011;2872;48.874;9.358;2023-07-31T15:03:53;6.57;;;2.55;;
5694;SDS011;2872;48.874;9.358;2023-07-31T15:06:21;4.00;;;2.20;;
5694;SDS011;2872;48.874;9.358;2023-07-31T15:08:48;5.37;;;2.60;;
5694;SDS011;2872;48.874;9.358;2023-07-31T15:11:17;7.40;;;2.08;;
5694;SDS011;2872;48.874;9.358;2023-07-31T15:13:44;5.38;;;2.25;;
5694;SDS011;2872;48.874;9.358;2023-07-31T15:16:11;7.05;;;2.22;;
5694;SDS011;2872;48.874;9.358;2023-07-31T15:18:40;3.10;;;2.28;;
5694;SDS011;2872;48.874;9.358;2023-07-31T15:21:07;13.88;;;2.70;;